Time;durP1;ratioP1;P1;durP2;ratioP2;P2;SDS_P1;SDS_P2;PMS_P1;PMS_P2;Temp;Humidity;BMP_temperature;BMP_pressure;BME280_temperature;BME280_humidity;BME280_pressure;Samples;Min_cycle;Max_cycle;Signal;HPM_P1;HPM_P2
2023/04/19 00:02:01;;;;;;;13.25;8.70;;;10.80;99.90;;;;;;4994472;28;20035;-81
2023/04/19 00:04:28;;;;;;;15.57;8.35;;;;;;;;;;4998537;28;20088;-81
2023/04/19 00:06:55;;;;;;;13.25;8.93;;;;;;;;;;4994113;28;20038;-83
2023/04/19 00:09:21;;;;;;;11.50;7.82;;;10.70;99.90;;;;;;4991505;28;20027;-79
2023/04/19 00:11:46;;;;;;;15.23;8.68;;;10.80;99.90;;;;;;4998350;28;20035;-84
2023/04/19 00:14:12;;;;;;;13.35;9.00;;;10.90;99.90;;;;;;4996066;28;20022;-81
2023/04/19 00:16:38;;;;;;;12.93;8.25;;;10.80;99.90;;;;;;4993688;28;20033;-85
2023/04/19 00:19:04;;;;;;;12.68;8.98;;;;;;;;;;4991874;28;20034;-84
2023/04/19 00:21:30;;;;;;;12.43;8.75;;;10.80;99.90;;;;;;4996761;28;20035;-82
2023/04/19 00:23:55;;;;;;;12.65;8.77;;;10.80;99.90;;;;;;4994190;28;20029;-85
2023/04/19 00:26:21;;;;;;;12.88;8.98;;;10.70;99.90;;;;;;4994286;28;20027;-85
2023/04/19 00:28:47;;;;;;;14.05;9.25;;;;;;;;;;4996356;28;20430;-83
2023/04/19 00:31:13;;;;;;;13.55;9.18;;;;;;;;;;4993101;28;20104;-85
2023/04/19 00:33:39;;;;;;;11.80;8.70;;;;;;;;;;4995149;28;20027;-81
2023/04/19 00:36:05;;;;;;;11.40;8.18;;;10.90;99.90;;;;;;4994542;28;20039;-80
2023/04/19 00:38:31;;;;;;;12.77;8.63;;;;;;;;;;4997227;28;20120;-82
2023/04/19 00:40:58;;;;;;;14.98;9.27;;;10.90;99.90;;;;;;5001711;28;20063;-83
2023/04/19 00:43:24;;;;;;;14.48;9.55;;;;;;;;;;4999573;28;20038;-81
2023/04/19 00:45:50;;;;;;;12.85;8.82;;;11.00;99.90;;;;;;4996282;28;20089;-81
2023/04/19 00:48:16;;;;;;;13.98;9.57;;;;;;;;;;4995473;28;20023;-82
2023/04/19 00:50:43;;;;;;;15.13;9.48;;;11.10;99.90;;;;;;4994197;28;20105;-82
2023/04/19 00:53:09;;;;;;;14.52;9.55;;;11.10;99.90;;;;;;4997817;28;20033;-83
2023/04/19 00:55:37;;;;;;;14.70;9.73;;;;;;;;;;4996463;28;20036;-84
2023/04/19 00:58:04;;;;;;;14.50;9.77;;;11.10;99.90;;;;;;4995206;28;20037;-80
2023/04/19 01:00:31;;;;;;;13.68;9.23;;;11.60;99.90;;;;;;4994230;28;20031;-80
2023/04/19 01:02:57;;;;;;;14.13;9.52;;;11.10;99.90;;;;;;4992681;28;20042;-83
2023/04/19 01:05:23;;;;;;;15.68;9.50;;;;;;;;;;4995394;28;20026;-84
2023/04/19 01:07:49;;;;;;;15.85;9.73;;;11.20;99.90;;;;;;5000344;28;20038;-84
2023/04/19 01:10:15;;;;;;;13.60;9.35;;;11.50;99.90;;;;;;4996866;28;20122;-85
2023/04/19 01:12:40;;;;;;;13.30;9.52;;;12.40;99.90;;;;;;4995467;28;20027;-85
2023/04/19 01:15:07;;;;;;;15.63;10.38;;;;;;;;;;4990209;28;20511;-82
2023/04/19 01:17:33;;;;;;;14.90;8.95;;;11.00;99.90;;;;;;5005807;28;20106;-82
2023/04/19 01:20:06;;;;;;;13.55;8.45;;;11.10;99.90;;;;;;4995359;28;20042;-82
2023/04/19 01:22:32;;;;;;;12.10;8.80;;;;;;;;;;4988085;28;20031;-80
2023/04/19 01:24:58;;;;;;;12.95;8.77;;;;;;;;;;4998496;28;20045;-85
2023/04/19 01:27:23;;;;;;;13.23;9.35;;;11.10;99.90;;;;;;4993195;28;20498;-84
2023/04/19 01:29:49;;;;;;;12.30;8.98;;;;;;;;;;5014884;28;20065;-82
2023/04/19 01:32:16;;;;;;;13.77;9.52;;;;;;;;;;4999017;28;20098;-85
2023/04/19 01:34:42;;;;;;;11.65;8.50;;;11.20;99.90;;;;;;5000770;28;20022;-80
2023/04/19 01:37:08;;;;;;;12.45;8.60;;;;;;;;;;4997696;28;20308;-85
2023/04/19 01:39:34;;;;;;;13.40;9.60;;;;;;;;;;5000118;28;20031;-83
2023/04/19 01:42:00;;;;;;;13.50;8.77;;;11.10;99.90;;;;;;4999660;28;20034;-83
2023/04/19 01:44:26;;;;;;;11.68;8.38;;;;;;;;;;4992625;28;20039;-81
2023/04/19 01:46:52;;;;;;;13.95;8.55;;;;;;;;;;5012780;28;20038;-85
2023/04/19 01:49:18;;;;;;;15.85;9.10;;;;;;;;;;5001764;28;20034;-84
2023/04/19 01:51:44;;;;;;;13.13;8.10;;;11.20;99.90;;;;;;5007387;28;20026;-84
2023/04/19 01:54:10;;;;;;;14.25;8.50;;;11.20;99.90;;;;;;5016663;28;20025;-84
2023/04/19 01:56:36;;;;;;;13.60;8.23;;;;;;;;;;4996121;28;20030;-81
2023/04/19 01:59:02;;;;;;;11.32;7.80;;;11.20;99.90;;;;;;5003097;28;20078;-83
2023/04/19 02:01:29;;;;;;;11.50;8.13;;;;;;;;;;4998050;28;20027;-85
2023/04/19 02:03:55;;;;;;;13.70;8.05;;;;;;;;;;4997708;28;20030;-85
2023/04/19 02:06:21;;;;;;;14.13;9.02;;;;;;;;;;4995441;28;20041;-84
2023/04/19 02:08:47;;;;;;;13.50;9.00;;;;;;;;;;5002441;28;20030;-83
2023/04/19 02:11:13;;;;;;;11.85;8.23;;;;;;;;;;4998207;28;20035;-83
2023/04/19 02:13:40;;;;;;;12.90;8.57;;;;;;;;;;4992411;28;20129;-84
2023/04/19 02:16:06;;;;;;;11.80;8.38;;;;;;;;;;4989746;28;20035;-84
2023/04/19 02:18:37;;;;;;;13.60;8.50;;;;;;;;;;4999891;28;20030;-82
2023/04/19 02:21:03;;;;;;;12.07;8.40;;;;;;;;;;4996688;28;20034;-80
2023/04/19 02:23:29;;;;;;;13.95;8.57;;;;;;;;;;5009903;28;20015;-84
2023/04/19 02:25:55;;;;;;;13.05;7.88;;;;;;;;;;4998308;28;20039;-82
2023/04/19 02:28:21;;;;;;;13.45;8.88;;;;;;;;;;5000938;28;20034;-79
2023/04/19 02:30:47;;;;;;;12.13;7.82;;;11.00;99.90;;;;;;4999395;28;20026;-83
2023/04/19 02:33:13;;;;;;;14.05;8.73;;;;;;;;;;4992463;28;20053;-88
2023/04/19 02:35:38;;;;;;;12.93;8.73;;;10.90;99.90;;;;;;5001514;28;20464;-82
2023/04/19 02:38:04;;;;;;;12.73;8.25;;;;;;;;;;4995530;28;20038;-85
2023/04/19 02:40:33;;;;;;;10.68;8.25;;;;;;;;;;4996817;28;20026;-82
2023/04/19 02:42:58;;;;;;;11.88;8.45;;;10.80;99.90;;;;;;4998693;28;20041;-83
2023/04/19 02:45:24;;;;;;;12.63;8.27;;;;;;;;;;4996702;28;20101;-85
2023/04/19 02:47:50;;;;;;;11.63;8.02;;;10.80;99.90;;;;;;4994195;28;20049;-82
2023/04/19 02:50:16;;;;;;;11.68;8.02;;;;;;;;;;5004755;28;20026;-81
2023/04/19 02:52:42;;;;;;;12.82;8.65;;;10.80;99.90;;;;;;4999806;28;20023;-83
2023/04/19 02:55:08;;;;;;;12.57;8.68;;;10.80;99.90;;;;;;5001081;28;20029;-84
2023/04/19 02:57:33;;;;;;;11.88;8.35;;;10.80;99.90;;;;;;5001245;28;20034;-83
2023/04/19 02:59:59;;;;;;;12.23;7.90;;;11.70;99.90;;;;;;4995620;28;20041;-84
2023/04/19 03:02:25;;;;;;;12.85;8.15;;;10.70;99.90;;;;;;5001538;28;20034;-83
2023/04/19 03:04:51;;;;;;;10.95;7.47;;;11.40;99.90;;;;;;5003053;28;20038;-82
2023/04/19 03:07:17;;;;;;;11.10;7.82;;;10.70;99.90;;;;;;4998130;28;20038;-81
2023/04/19 03:09:43;;;;;;;10.65;7.60;;;;;;;;;;4999712;28;20491;-85
2023/04/19 03:12:09;;;;;;;13.75;8.15;;;10.70;99.90;;;;;;5002869;28;20031;-82
2023/04/19 03:14:35;;;;;;;10.52;7.10;;;;;;;;;;5005265;28;20030;-82
2023/04/19 03:17:02;;;;;;;12.55;7.55;;;;;;;;;;4999049;28;20026;-83
2023/04/19 03:19:28;;;;;;;11.52;7.53;;;10.70;99.90;;;;;;5001415;28;20022;-81
2023/04/19 03:21:53;;;;;;;13.93;7.75;;;10.70;99.90;;;;;;4997522;28;20038;-82
2023/04/19 03:24:20;;;;;;;11.07;7.50;;;;;;;;;;4996990;28;20038;-82
2023/04/19 03:26:46;;;;;;;11.90;7.00;;;;;;;;;;4996208;28;20015;-84
2023/04/19 03:29:13;;;;;;;11.10;7.13;;;;;;;;;;4979606;28;20045;-85
2023/04/19 03:31:39;;;;;;;11.38;6.95;;;;;;;;;;4996152;28;20011;-81
2023/04/19 03:34:05;;;;;;;12.75;7.53;;;;;;;;;;4996351;28;20061;-84
2023/04/19 03:36:31;;;;;;;11.85;7.47;;;;;;;;;;5005308;28;20032;-82
2023/04/19 03:38:57;;;;;;;11.60;7.18;;;;;;;;;;5007434;28;20034;-85
2023/04/19 03:41:26;;;;;;;11.65;7.47;;;10.30;99.90;;;;;;4993061;28;20035;-84
2023/04/19 03:43:52;;;;;;;9.88;6.63;;;10.30;99.90;;;;;;4996977;28;20030;-83
2023/04/19 03:46:17;;;;;;;11.95;7.85;;;;;;;;;;5001344;28;20039;-79
2023/04/19 03:48:43;;;;;;;10.57;6.88;;;;;;;;;;5004035;28;20077;-82
2023/04/19 03:51:10;;;;;;;12.13;7.28;;;;;;;;;;5001635;28;20087;-83
2023/04/19 03:53:36;;;;;;;11.35;7.32;;;10.20;99.90;;;;;;5004839;28;20034;-84
2023/04/19 03:56:01;;;;;;;12.00;7.18;;;10.20;99.90;;;;;;5002736;28;20090;-82
2023/04/19 03:58:27;;;;;;;10.27;6.85;;;11.70;99.90;;;;;;5004267;28;20084;-82
2023/04/19 04:00:53;;;;;;;9.23;6.43;;;;;;;;;;4999857;28;20034;-83
2023/04/19 04:03:19;;;;;;;9.30;6.25;;;;;;;;;;5027547;23;20049;-84
2023/04/19 04:05:45;;;;;;;10.85;6.22;;;;;;;;;;5008724;28;20022;-87
2023/04/19 04:08:12;;;;;;;10.07;6.72;;;;;;;;;;5005093;28;20095;-84
2023/04/19 04:10:39;;;;;;;9.85;6.38;;;;;;;;;;5010663;28;20019;-86
2023/04/19 04:13:04;;;;;;;10.15;6.40;;;;;;;;;;4998361;28;20493;-85
2023/04/19 04:15:31;;;;;;;12.20;6.93;;;;;;;;;;4991454;28;20023;-86
2023/04/19 04:17:57;;;;;;;9.73;6.20;;;;;;;;;;4996920;28;20030;-86
2023/04/19 04:20:23;;;;;;;10.57;6.55;;;;;;;;;;5007299;28;20121;-84
2023/04/19 04:22:51;;;;;;;9.38;5.97;;;;;;;;;;4984363;28;20026;-83
2023/04/19 04:25:17;;;;;;;10.38;6.13;;;;;;;;;;4998070;28;20031;-86
2023/04/19 04:27:43;;;;;;;11.43;6.38;;;;;;;;;;5003079;28;20031;-83
2023/04/19 04:30:10;;;;;;;11.05;6.43;;;;;;;;;;5003080;28;20023;-87
2023/04/19 04:32:37;;;;;;;9.68;5.88;;;;;;;;;;5009398;28;20035;-84
2023/04/19 04:35:08;;;;;;;9.02;6.07;;;;;;;;;;4991520;28;20031;-84
2023/04/19 04:37:34;;;;;;;9.95;6.60;;;;;;;;;;5003192;28;20102;-85
2023/04/19 04:40:00;;;;;;;10.95;6.35;;;;;;;;;;4988655;28;20037;-84
2023/04/19 04:42:27;;;;;;;10.38;6.50;;;;;;;;;;4986089;28;20031;-86
2023/04/19 04:44:56;;;;;;;10.15;6.50;;;;;;;;;;5000881;28;20050;-85
2023/04/19 04:47:23;;;;;;;8.53;5.80;;;;;;;;;;5007628;28;20065;-87
2023/04/19 04:49:49;;;;;;;10.95;6.32;;;;;;;;;;4991418;28;20030;-86
2023/04/19 04:52:16;;;;;;;12.10;7.18;;;;;;;;;;5010630;28;20034;-86
2023/04/19 04:54:42;;;;;;;10.63;6.78;;;;;;;;;;5003017;28;20027;-87
2023/04/19 04:57:08;;;;;;;9.98;6.55;;;;;;;;;;5000957;28;20026;-87
2023/04/19 04:59:34;;;;;;;12.38;6.57;;;;;;;;;;5002323;28;20031;-85
2023/04/19 05:02:00;;;;;;;9.98;5.70;;;;;;;;;;4987549;28;20368;-86
2023/04/19 05:04:29;;;;;;;8.95;5.40;;;;;;;;;;4995659;28;20132;-87
2023/04/19 05:06:57;;;;;;;10.05;5.80;;;;;;;;;;4996288;28;20031;-85
2023/04/19 05:09:26;;;;;;;10.25;6.45;;;;;;;;;;4994899;28;20047;-86
2023/04/19 05:11:52;;;;;;;8.85;6.40;;;;;;;;;;4976511;28;20046;-85
2023/04/19 05:14:18;;;;;;;10.77;6.25;;;;;;;;;;4974025;28;20042;-87
2023/04/19 05:16:44;;;;;;;11.77;6.63;;;10.50;99.90;;;;;;4987208;28;20034;-85
2023/04/19 05:19:10;;;;;;;10.57;6.65;;;;;;;;;;4972665;28;20041;-88
2023/04/19 05:21:36;;;;;;;10.30;5.95;;;;;;;;;;4974951;28;20030;-88
2023/04/19 05:24:02;;;;;;;10.88;6.57;;;10.60;99.90;;;;;;4980387;28;20049;-88
2023/04/19 05:26:28;;;;;;;8.52;5.97;;;;;;;;;;4985667;28;20094;-85
2023/04/19 05:28:53;;;;;;;10.23;6.45;;;10.60;99.90;;;;;;4984000;28;20031;-84
2023/04/19 05:31:19;;;;;;;7.78;5.82;;;13.30;99.90;;;;;;4971852;28;20018;-86
2023/04/19 05:33:45;;;;;;;9.10;6.22;;;11.10;99.90;;;;;;4970713;28;20518;-87
2023/04/19 05:36:11;;;;;;;8.93;6.60;;;;;;;;;;4959829;28;20066;-84
2023/04/19 05:38:37;;;;;;;7.75;5.47;;;;;;;;;;4989747;28;20039;-88
2023/04/19 05:41:04;;;;;;;8.55;5.60;;;;;;;;;;4984765;28;20382;-85
2023/04/19 05:43:30;;;;;;;10.05;6.22;;;;;;;;;;4992954;28;20023;-85
2023/04/19 05:45:56;;;;;;;11.05;5.82;;;10.80;99.90;;;;;;4978951;28;20027;-83
2023/04/19 05:48:22;;;;;;;8.73;5.68;;;;;;;;;;4969470;28;20026;-85
2023/04/19 05:50:47;;;;;;;9.60;5.78;;;10.80;99.90;;;;;;4976185;28;20049;-88
2023/04/19 05:53:14;;;;;;;9.98;5.90;;;;;;;;;;4976761;28;20035;-88
2023/04/19 05:55:43;;;;;;;8.23;5.50;;;;;;;;;;4993090;28;20058;-82
2023/04/19 05:58:12;;;;;;;9.43;6.28;;;;;;;;;;4974458;28;21257;-83
2023/04/19 06:00:37;;;;;;;10.95;5.93;;;10.80;99.90;;;;;;4989455;28;20037;-81
2023/04/19 06:03:04;;;;;;;10.73;6.00;;;;;;;;;;4967393;28;20034;-83
2023/04/19 06:05:30;;;;;;;8.68;5.68;;;;;;;;;;4981158;28;20026;-85
2023/04/19 06:07:56;;;;;;;8.55;5.25;;;;;;;;;;4985826;28;20031;-84
2023/04/19 06:10:22;;;;;;;11.18;5.72;;;10.90;99.90;;;;;;4979013;28;20649;-85
2023/04/19 06:12:48;;;;;;;9.75;5.97;;;;;;;;;;4965916;28;20040;-83
2023/04/19 06:15:14;;;;;;;10.27;6.28;;;10.90;99.90;;;;;;4966690;28;20053;-84
2023/04/19 06:17:40;;;;;;;9.50;5.80;;;;;;;;;;4985964;28;20031;-86
2023/04/19 06:20:08;;;;;;;9.38;6.25;;;;;;;;;;4989616;28;20920;-84
2023/04/19 06:22:35;;;;;;;11.20;6.40;;;;;;;;;;4985362;28;20039;-85
2023/04/19 06:25:01;;;;;;;8.40;5.78;;;10.90;99.90;;;;;;4989716;28;20022;-87
2023/04/19 06:27:27;;;;;;;10.50;6.57;;;;;;;;;;4977563;28;20043;-84
2023/04/19 06:29:53;;;;;;;8.95;5.63;;;;;;;;;;4988596;28;20384;-87
2023/04/19 06:32:19;;;;;;;8.30;5.70;;;;;;;;;;4989843;28;20027;-87
2023/04/19 06:34:45;;;;;;;9.43;5.43;;;;;;;;;;4991737;28;20054;-89
2023/04/19 06:37:11;;;;;;;9.52;5.32;;;11.20;99.90;;;;;;4994034;28;20023;-86
2023/04/19 06:39:37;;;;;;;7.85;5.45;;;;;;;;;;4984147;28;20125;-86
2023/04/19 06:42:02;;;;;;;9.55;5.72;;;11.30;99.90;;;;;;4981526;28;20035;-86
2023/04/19 06:44:28;;;;;;;8.60;5.70;;;11.30;99.90;;;;;;5002737;28;20058;-88
2023/04/19 06:46:54;;;;;;;8.68;5.53;;;;;;;;;;4994677;28;20047;-89
2023/04/19 06:49:21;;;;;;;9.40;5.68;;;;;;;;;;5000793;28;20181;-87
2023/04/19 06:51:48;;;;;;;9.77;6.20;;;11.40;99.90;;;;;;5011777;28;20019;-88
2023/04/19 06:54:13;;;;;;;8.75;5.63;;;11.30;99.90;;;;;;5010326;28;20050;-88
2023/04/19 06:56:44;;;;;;;8.27;5.50;;;12.80;99.90;;;;;;4990572;28;20035;-88
2023/04/19 06:59:15;;;;;;;;;;;11.40;99.90;;;;;;4991618;28;20042;-87
2023/04/19 07:01:41;;;;;;;9.23;5.55;;;;;;;;;;4987631;28;19915;-86
2023/04/19 07:04:07;;;;;;;10.00;6.18;;;11.40;99.90;;;;;;5002312;28;20042;-86
2023/04/19 07:06:34;;;;;;;9.52;5.85;;;11.30;99.90;;;;;;4990853;28;20045;-88
2023/04/19 07:09:00;;;;;;;7.95;5.68;;;;;;;;;;4993426;28;20330;-87
2023/04/19 07:11:26;;;;;;;7.75;5.90;;;11.40;99.90;;;;;;5005230;28;20026;-88
2023/04/19 07:13:55;;;;;;;9.23;6.05;;;11.50;99.90;;;;;;4987622;28;20058;-87
2023/04/19 07:16:20;;;;;;;9.85;6.13;;;11.50;99.90;;;;;;4988703;28;20026;-88
2023/04/19 07:18:46;;;;;;;8.55;5.88;;;;;;;;;;4986599;28;20069;-88
2023/04/19 07:21:12;;;;;;;9.10;5.95;;;;;;;;;;5002603;28;20039;-89
2023/04/19 07:23:38;;;;;;;8.95;5.93;;;11.60;99.90;;;;;;5018218;28;20098;-86
2023/04/19 07:26:04;;;;;;;9.35;6.13;;;11.70;99.90;;;;;;4995780;28;20042;-83
2023/04/19 07:28:30;;;;;;;10.32;5.82;;;;;;;;;;4989888;28;20054;-83
2023/04/19 07:30:56;;;;;;;11.23;6.10;;;11.70;99.90;;;;;;4985112;28;20014;-86
2023/04/19 07:33:23;;;;;;;9.80;6.25;;;11.80;99.90;;;;;;4985926;28;20019;-83
2023/04/19 07:35:50;;;;;;;13.38;6.20;;;;;;;;;;4988124;28;20176;-84
2023/04/19 07:38:16;;;;;;;9.38;6.18;;;11.70;99.90;;;;;;4991828;28;20459;-84
2023/04/19 07:40:42;;;;;;;9.25;6.38;;;;;;;;;;4991728;28;20031;-86
2023/04/19 07:43:07;;;;;;;10.68;6.10;;;11.70;99.90;;;;;;5002005;28;20086;-86
2023/04/19 07:45:34;;;;;;;10.07;5.68;;;;;;;;;;4992779;28;20054;-88
2023/04/19 07:48:00;;;;;;;8.52;6.00;;;;;;;;;;5016469;28;20034;-85
2023/04/19 07:50:26;;;;;;;10.02;6.70;;;;;;;;;;4993683;28;20027;-87
2023/04/19 07:52:52;;;;;;;11.35;6.60;;;;;;;;;;4991509;28;20038;-87
2023/04/19 07:55:18;;;;;;;9.77;6.60;;;13.50;99.90;;;;;;5008448;28;20031;-86
2023/04/19 07:57:47;;;;;;;10.10;5.75;;;;;;;;;;4996289;28;20030;-87
2023/04/19 08:00:14;;;;;;;9.13;5.80;;;12.00;99.90;;;;;;5013323;28;20018;-88
2023/04/19 08:02:43;;;;;;;8.23;6.00;;;12.10;99.90;;;;;;4993816;28;20019;-87
2023/04/19 08:05:09;;;;;;;9.27;5.95;;;12.20;99.90;;;;;;4995208;28;20011;-88
2023/04/19 08:07:35;;;;;;;9.85;7.13;;;;;;;;;;4995204;28;20042;-89
2023/04/19 08:10:01;;;;;;;11.10;6.10;;;12.20;99.90;;;;;;5007383;28;20011;-87
2023/04/19 08:12:27;;;;;;;8.98;6.55;;;;;;;;;;4994355;28;21450;-85
2023/04/19 08:14:52;;;;;;;9.25;6.13;;;12.30;99.90;;;;;;4989820;28;20041;-86
2023/04/19 08:17:20;;;;;;;11.52;6.30;;;;;;;;;;4973045;28;20098;-85
2023/04/19 08:19:48;;;;;;;10.20;6.20;;;;;;;;;;5002335;28;20517;-84
2023/04/19 08:22:15;;;;;;;9.15;6.40;;;12.50;99.90;;;;;;5001541;28;20054;-84
2023/04/19 08:24:40;;;;;;;10.27;6.07;;;12.70;99.90;;;;;;4979395;28;20061;-88
2023/04/19 08:27:06;;;;;;;9.85;6.28;;;;;;;;;;4997966;28;20046;-84
2023/04/19 08:29:32;;;;;;;7.63;5.97;;;;;;;;;;4999900;28;20046;-86
2023/04/19 08:31:58;;;;;;;9.07;5.88;;;;;;;;;;5001556;28;20031;-85
2023/04/19 08:34:24;;;;;;;10.43;6.40;;;;;;;;;;5000128;28;20027;-89
2023/04/19 08:36:50;;;;;;;9.43;5.95;;;;;;;;;;4994934;28;20058;-87
2023/04/19 08:39:17;;;;;;;9.55;6.53;;;;;;;;;;4987049;28;20035;-87
2023/04/19 08:41:47;;;;;;;10.52;6.18;;;13.40;99.90;;;;;;5001992;28;20110;-88
2023/04/19 08:44:15;;;;;;;8.52;5.65;;;14.20;99.90;;;;;;5005560;28;20019;-88
2023/04/19 08:46:42;;;;;;;11.43;6.10;;;13.60;99.90;;;;;;4985512;28;20042;-87
2023/04/19 08:49:09;;;;;;;9.38;5.85;;;14.10;99.90;;;;;;4998644;28;20097;-85
2023/04/19 08:51:35;;;;;;;8.23;5.32;;;;;;;;;;4985947;28;20050;-88
2023/04/19 08:54:04;;;;;;;10.40;6.00;;;;;;;;;;5005438;28;20030;-87
2023/04/19 08:56:30;;;;;;;10.00;5.72;;;;;;;;;;4983884;28;20015;-87
2023/04/19 08:58:56;;;;;;;8.98;5.22;;;;;;;;;;5002708;28;20031;-87
2023/04/19 09:01:22;;;;;;;9.02;5.47;;;;;;;;;;5011125;28;20027;-86
2023/04/19 09:03:49;;;;;;;7.80;5.07;;;;;;;;;;4999657;28;20025;-87
2023/04/19 09:06:15;;;;;;;7.47;5.03;;;;;;;;;;4995579;28;20037;-89
2023/04/19 09:08:41;;;;;;;7.15;4.80;;;;;;;;;;4993286;28;20026;-87
2023/04/19 09:11:08;;;;;;;7.25;4.43;;;;;;;;;;4997899;28;20042;-87
2023/04/19 09:13:39;;;;;;;8.38;5.10;;;;;;;;;;4998841;28;20058;-88
2023/04/19 09:16:06;;;;;;;7.50;4.85;;;;;;;;;;4979155;28;20035;-87
2023/04/19 09:18:33;;;;;;;6.88;4.50;;;;;;;;;;4996080;28;20033;-88
2023/04/19 09:20:59;;;;;;;7.82;4.82;;;;;;;;;;4990268;28;20064;-85
2023/04/19 09:23:27;;;;;;;6.07;4.38;;;;;;;;;;5003711;28;20042;-87
2023/04/19 09:26:01;;;;;;;7.38;4.20;;;;;;;;;;4991295;28;20039;-87
2023/04/19 09:28:28;;;;;;;8.00;4.45;;;;;;;;;;4993524;28;20113;-86
2023/04/19 09:30:55;;;;;;;6.55;4.28;;;;;;;;;;4991557;28;20041;-86
2023/04/19 09:33:31;;;;;;;6.97;4.00;;;;;;;;;;5000288;28;20070;-87
2023/04/19 09:35:58;;;;;;;8.85;4.80;;;;;;;;;;4991589;28;20015;-88
2023/04/19 09:38:24;;;;;;;7.88;4.80;;;;;;;;;;5004102;28;20335;-88
2023/04/19 09:40:50;;;;;;;7.95;4.55;;;;;;;;;;4978460;28;20034;-86
2023/04/19 09:43:24;;;;;;;6.32;4.45;;;;;;;;;;4994196;28;20098;-86
2023/04/19 09:45:50;;;;;;;8.10;4.78;;;;;;;;;;4995327;28;20520;-86
2023/04/19 09:48:16;;;;;;;8.60;4.88;;;;;;;;;;4992071;28;20039;-85
2023/04/19 09:51:01;;;;;;;6.75;4.15;;;;;;;;;;4997847;28;20310;-89
2023/04/19 09:53:28;;;;;;;7.78;4.40;;;;;;;;;;4977888;28;20023;-86
2023/04/19 09:55:54;;;;;;;6.40;4.18;;;;;;;;;;4994142;28;20035;-86
2023/04/19 09:58:20;;;;;;;8.77;4.00;;;;;;;;;;4989173;28;20057;-89
2023/04/19 10:00:49;;;;;;;7.85;4.53;;;;;;;;;;4993105;28;20102;-87
2023/04/19 10:03:15;;;;;;;6.80;4.50;;;;;;;;;;4991580;28;20102;-89
2023/04/19 10:05:42;;;;;;;7.03;4.72;;;;;;;;;;4978197;28;20039;-85
2023/04/19 10:08:09;;;;;;;6.63;4.13;;;;;;;;;;4999428;28;20027;-86
2023/04/19 10:10:35;;;;;;;7.00;4.63;;;;;;;;;;4973562;28;20343;-85
2023/04/19 10:13:06;;;;;;;8.27;4.53;;;;;;;;;;4978050;28;20029;-89
2023/04/19 10:15:33;;;;;;;7.85;4.40;;;;;;;;;;4985262;28;20042;-86
2023/04/19 10:17:59;;;;;;;8.13;4.50;;;;;;;;;;4992126;28;20270;-84
2023/04/19 10:20:32;;;;;;;7.40;4.15;;;;;;;;;;4999704;28;20046;-87
2023/04/19 10:22:58;;;;;;;6.25;4.22;;;;;;;;;;4989390;28;20042;-86
2023/04/19 10:25:28;;;;;;;9.15;4.45;;;;;;;;;;4997905;28;20038;-85
2023/04/19 10:27:54;;;;;;;6.20;4.38;;;;;;;;;;4989511;28;20066;-88
2023/04/19 10:30:21;;;;;;;10.02;4.40;;;;;;;;;;4990586;28;20034;-85
2023/04/19 10:32:52;;;;;;;7.40;4.10;;;;;;;;;;4985891;28;20481;-84
2023/04/19 10:35:22;;;;;;;8.63;3.85;;;;;;;;;;4987879;28;20061;-85
2023/04/19 10:38:05;;;;;;;7.38;4.40;;;;;;;;;;4988491;28;20026;-87
2023/04/19 10:40:59;;;;;;;6.53;4.10;;;;;;;;;;4995700;28;20386;-87
2023/04/19 10:43:25;;;;;;;6.00;4.45;;;;;;;;;;4980143;28;20134;-84
2023/04/19 10:45:51;;;;;;;8.50;4.32;;;;;;;;;;4998073;28;20034;-84
2023/04/19 10:48:32;;;;;;;7.20;4.10;;;;;;;;;;4965657;28;20027;-86
2023/04/19 10:51:18;;;;;;;6.10;4.20;;;;;;;;;;4989183;28;20480;-86
2023/04/19 10:53:50;;;;;;;8.18;4.70;;;;;;;;;;4998400;28;20278;-89
2023/04/19 10:56:17;;;;;;;7.50;4.40;;;;;;;;;;4995911;28;20464;-88
2023/04/19 10:59:06;;;;;;;7.45;5.43;;;;;;;;;;5000932;28;20030;-88
2023/04/19 11:01:41;;;;;;;6.85;5.07;;;;;;;;;;4974748;28;20019;-86
2023/04/19 11:04:19;;;;;;;7.97;5.60;;;;;;;;;;4990091;28;20505;-88
2023/04/19 11:06:51;;;;;;;8.45;5.05;;;;;;;;;;4977312;28;20513;-87
2023/04/19 11:09:37;;;;;;;9.10;4.75;;;;;;;;;;4984968;28;20023;-85
2023/04/19 11:12:03;;;;;;;7.53;4.80;;;;;;;;;;4998981;28;20019;-87
2023/04/19 11:14:31;;;;;;;8.75;4.90;;;;;;;;;;5000689;28;20034;-84
2023/04/19 11:16:57;;;;;;;12.15;5.30;;;;;;;;;;4988813;28;20034;-87
2023/04/19 11:19:26;;;;;;;6.85;4.82;;;;;;;;;;4991414;28;20031;-88
2023/04/19 11:21:52;;;;;;;7.38;5.00;;;;;;;;;;5001033;28;20030;-87
2023/04/19 11:24:19;;;;;;;6.13;4.47;;;;;;;;;;4987050;28;20038;-87
2023/04/19 11:26:46;;;;;;;7.53;4.93;;;;;;;;;;5005866;28;20116;-86
2023/04/19 11:29:12;;;;;;;10.43;4.78;;;;;;;;;;4989545;28;20027;-86
2023/04/19 11:31:38;;;;;;;7.15;4.68;;;;;;;;;;4990650;28;20030;-85
2023/04/19 11:34:07;;;;;;;7.72;4.63;;;;;;;;;;5007554;28;20121;-87
2023/04/19 11:36:35;;;;;;;9.23;5.22;;;;;;;;;;4997722;28;20031;-86
2023/04/19 11:39:02;;;;;;;7.45;4.45;;;;;;;;;;4985114;28;20023;-88
2023/04/19 11:41:28;;;;;;;6.57;4.93;;;;;;;;;;5006319;28;20085;-87
2023/04/19 11:43:54;;;;;;;6.80;4.88;;;;;;;;;;4981556;28;21116;-86
2023/04/19 11:46:22;;;;;;;7.50;4.82;;;;;;;;;;4985380;28;20046;-89
2023/04/19 11:48:52;;;;;;;8.40;5.15;;;;;;;;;;4991550;28;20086;-83
2023/04/19 11:51:23;;;;;;;9.77;4.97;;;;;;;;;;5003160;28;20485;-84
2023/04/19 11:53:52;;;;;;;7.45;4.47;;;;;;;;;;4983623;28;20133;-87
2023/04/19 11:56:23;;;;;;;7.30;4.80;;;;;;;;;;4990232;28;20047;-87
2023/04/19 11:58:50;;;;;;;7.03;4.88;;;;;;;;;;5005970;28;20029;-85
2023/04/19 12:01:23;;;;;;;8.13;4.18;;;;;;;;;;4998867;28;20381;-83
2023/04/19 12:03:50;;;;;;;8.20;3.88;;;;;;;;;;4996881;28;20023;-86
2023/04/19 12:06:21;;;;;;;7.07;4.13;;;;;;;;;;4978814;28;20094;-88
2023/04/19 12:08:48;;;;;;;7.97;4.35;;;;;;;;;;4979817;28;20030;-86
2023/04/19 12:11:14;;;;;;;7.15;3.67;;;;;;;;;;4994607;28;20023;-88
2023/04/19 12:13:43;;;;;;;8.35;4.40;;;;;;;;;;4997187;28;20063;-86
2023/04/19 12:16:09;;;;;;;5.45;3.83;;;;;;;;;;4993418;28;20023;-86
2023/04/19 12:18:49;;;;;;;7.72;4.10;;;;;;;;;;4993519;28;20030;-86
2023/04/19 12:21:26;;;;;;;9.23;5.07;;;;;;;;;;4992120;28;20057;-87
2023/04/19 12:23:59;;;;;;;11.48;5.05;;;;;;;;;;4993911;28;20035;-88
2023/04/19 12:26:27;;;;;;;5.82;4.32;;;;;;;;;;4995595;28;20038;-87
2023/04/19 12:28:56;;;;;;;6.68;4.20;;;;;;;;;;4994644;28;20401;-86
2023/04/19 12:31:22;;;;;;;8.43;4.68;;;;;;;;;;5005688;28;20039;-87
2023/04/19 12:33:48;;;;;;;7.53;4.50;;;;;;;;;;5003052;28;20111;-87
2023/04/19 12:36:14;;;;;;;7.53;4.70;;;;;;;;;;4988080;28;20053;-87
2023/04/19 12:38:40;;;;;;;7.25;5.03;;;;;;;;;;5000602;28;20031;-87
2023/04/19 12:41:06;;;;;;;11.02;5.28;;;;;;;;;;4997330;28;20050;-87
2023/04/19 12:43:33;;;;;;;9.32;5.10;;;;;;;;;;4998784;28;20034;-86
2023/04/19 12:45:59;;;;;;;7.95;5.45;;;;;;;;;;5002878;28;20024;-85
2023/04/19 12:48:25;;;;;;;9.32;5.50;;;;;;;;;;4994267;28;20134;-84
2023/04/19 12:50:52;;;;;;;8.77;5.50;;;;;;;;;;4993792;28;20059;-85
2023/04/19 12:53:18;;;;;;;7.35;4.78;;;;;;;;;;4991349;28;20034;-87
2023/04/19 12:55:48;;;;;;;7.70;5.10;;;;;;;;;;4993488;28;20070;-86
2023/04/19 12:58:14;;;;;;;9.02;6.00;;;;;;;;;;5005974;28;20109;-85
2023/04/19 13:00:40;;;;;;;9.02;5.60;;;;;;;;;;5001280;28;20062;-88
2023/04/19 13:03:06;;;;;;;7.68;5.22;;;;;;;;;;5007808;28;20038;-87
2023/04/19 13:05:32;;;;;;;7.35;5.10;;;;;;;;;;5013797;28;20026;-88
2023/04/19 13:07:59;;;;;;;9.68;6.13;;;;;;;;;;4989202;28;20042;-88
2023/04/19 13:10:25;;;;;;;10.02;6.28;;;;;;;;;;5009489;28;20061;-88
2023/04/19 13:12:51;;;;;;;7.63;5.03;;;;;;;;;;5012337;28;20030;-85
2023/04/19 13:15:17;;;;;;;7.93;6.03;;;;;;;;;;4996499;28;20034;-86
2023/04/19 13:17:43;;;;;;;9.63;5.65;;;;;;;;;;5004926;28;20027;-86
2023/04/19 13:20:09;;;;;;;9.65;5.85;;;;;;;;;;5002892;28;20041;-87
2023/04/19 13:22:35;;;;;;;8.40;5.70;;;;;;;;;;5004706;28;20035;-86
2023/04/19 13:25:02;;;;;;;8.43;4.95;;;;;;;;;;5006265;28;20037;-87
2023/04/19 13:27:29;;;;;;;10.38;6.20;;;;;;;;;;4990658;28;20062;-87
2023/04/19 13:29:55;;;;;;;9.27;5.63;;;;;;;;;;5004179;28;20018;-85
2023/04/19 13:32:21;;;;;;;11.55;6.45;;;;;;;;;;4988030;28;20054;-87
2023/04/19 13:34:48;;;;;;;9.15;5.68;;;;;;;;;;4987594;28;20027;-84
2023/04/19 13:37:14;;;;;;;9.30;5.63;;;;;;;;;;5005014;28;20128;-86
2023/04/19 13:39:40;;;;;;;11.15;5.97;;;;;;;;;;5009324;28;20015;-88
2023/04/19 13:42:06;;;;;;;8.75;5.68;;;;;;;;;;5007427;28;20045;-86
2023/04/19 13:44:32;;;;;;;8.55;4.90;;;;;;;;;;5005537;28;20015;-87
2023/04/19 13:46:58;;;;;;;8.48;5.07;;;;;;;;;;5005899;28;20027;-88
2023/04/19 13:49:24;;;;;;;9.73;4.80;;;;;;;;;;5010673;28;20039;-86
2023/04/19 13:51:50;;;;;;;6.65;4.53;;;;;;;;;;5010503;28;20029;-87
2023/04/19 13:54:16;;;;;;;9.27;4.55;;;;;;;;;;5002411;28;20023;-87
2023/04/19 13:56:42;;;;;;;6.55;3.80;;;;;;;;;;5007885;28;20031;-88
2023/04/19 13:59:09;;;;;;;7.28;4.53;;;;;;;;;;5002525;28;20073;-83
2023/04/19 14:01:38;;;;;;;4.93;3.67;;;;;;;;;;4986504;28;20023;-86
2023/04/19 14:04:04;;;;;;;6.30;3.88;;;;;;;;;;4991504;28;20018;-84
2023/04/19 14:06:31;;;;;;;8.38;4.30;;;;;;;;;;5005998;28;20028;-88